sensor_id;sensor_type;location;lat;lon;timestamp;P1;durP1;ratioP1;P2;durP2;ratioP2
3941;SDS011;1985;48.592;8.850;2023-03-19T00:02:03;11.30;;;2.50;;
3941;SDS011;1985;48.592;8.850;2023-03-19T00:04:29;9.88;;;2.30;;
3941;SDS011;1985;48.592;8.850;2023-03-19T00:06:55;10.63;;;2.80;;
3941;SDS011;1985;48.592;8.850;2023-03-19T00:09:21;9.60;;;2.50;;
3941;SDS011;1985;48.592;8.850;2023-03-19T00:11:47;12.40;;;2.80;;
3941;SDS011;1985;48.592;8.850;2023-03-19T00:14:13;10.67;;;2.87;;
3941;SDS011;1985;48.592;8.850;2023-03-19T00:16:39;12.88;;;3.30;;
3941;SDS011;1985;48.592;8.850;2023-03-19T00:19:04;12.10;;;3.00;;
3941;SDS011;1985;48.592;8.850;2023-03-19T00:21:30;10.38;;;2.70;;
3941;SDS011;1985;48.592;8.850;2023-03-19T00:23:56;10.63;;;2.40;;
3941;SDS011;1985;48.592;8.850;2023-03-19T00:26:26;12.95;;;2.90;;
3941;SDS011;1985;48.592;8.850;2023-03-19T00:28:53;12.10;;;2.57;;
3941;SDS011;1985;48.592;8.850;2023-03-19T00:31:19;12.13;;;2.80;;
3941;SDS011;1985;48.592;8.850;2023-03-19T00:33:45;10.20;;;2.45;;
3941;SDS011;1985;48.592;8.850;2023-03-19T00:36:11;13.68;;;2.70;;
3941;SDS011;1985;48.592;8.850;2023-03-19T00:38:37;11.50;;;2.80;;
3941;SDS011;1985;48.592;8.850;2023-03-19T00:41:03;11.05;;;2.40;;
3941;SDS011;1985;48.592;8.850;2023-03-19T00:43:31;10.32;;;2.47;;
3941;SDS011;1985;48.592;8.850;2023-03-19T00:45:57;11.85;;;2.80;;
3941;SDS011;1985;48.592;8.850;2023-03-19T00:48:23;11.27;;;2.73;;
3941;SDS011;1985;48.592;8.850;2023-03-19T00:50:49;14.77;;;3.28;;
3941;SDS011;1985;48.592;8.850;2023-03-19T00:53:15;10.63;;;2.47;;
3941;SDS011;1985;48.592;8.850;2023-03-19T00:55:41;12.40;;;3.22;;
3941;SDS011;1985;48.592;8.850;2023-03-19T00:58:07;13.30;;;3.60;;
3941;SDS011;1985;48.592;8.850;2023-03-19T01:00:34;17.57;;;3.53;;
3941;SDS011;1985;48.592;8.850;2023-03-19T01:03:01;11.80;;;3.60;;
3941;SDS011;1985;48.592;8.850;2023-03-19T01:05:28;11.07;;;2.70;;
3941;SDS011;1985;48.592;8.850;2023-03-19T01:07:54;13.25;;;2.10;;
3941;SDS011;1985;48.592;8.850;2023-03-19T01:10:20;10.30;;;1.77;;
3941;SDS011;1985;48.592;8.850;2023-03-19T01:12:47;9.88;;;1.90;;
3941;SDS011;1985;48.592;8.850;2023-03-19T01:15:13;9.73;;;1.63;;
3941;SDS011;1985;48.592;8.850;2023-03-19T01:17:39;9.95;;;1.98;;
3941;SDS011;1985;48.592;8.850;2023-03-19T01:20:07;12.10;;;2.00;;
3941;SDS011;1985;48.592;8.850;2023-03-19T01:22:37;11.60;;;2.30;;
3941;SDS011;1985;48.592;8.850;2023-03-19T01:25:05;10.93;;;2.28;;
3941;SDS011;1985;48.592;8.850;2023-03-19T01:27:32;15.70;;;2.33;;
3941;SDS011;1985;48.592;8.850;2023-03-19T01:29:58;10.68;;;2.20;;
3941;SDS011;1985;48.592;8.850;2023-03-19T01:32:23;12.07;;;3.20;;
3941;SDS011;1985;48.592;8.850;2023-03-19T01:34:49;13.82;;;4.05;;
3941;SDS011;1985;48.592;8.850;2023-03-19T01:37:15;13.40;;;3.45;;
3941;SDS011;1985;48.592;8.850;2023-03-19T01:39:41;14.32;;;3.90;;
3941;SDS011;1985;48.592;8.850;2023-03-19T01:42:06;12.50;;;3.73;;
3941;SDS011;1985;48.592;8.850;2023-03-19T01:44:35;12.63;;;3.60;;
3941;SDS011;1985;48.592;8.850;2023-03-19T01:47:07;10.93;;;3.10;;
3941;SDS011;1985;48.592;8.850;2023-03-19T01:49:41;10.50;;;3.20;;
3941;SDS011;1985;48.592;8.850;2023-03-19T01:52:09;13.15;;;3.80;;
3941;SDS011;1985;48.592;8.850;2023-03-19T01:54:37;13.73;;;3.72;;
3941;SDS011;1985;48.592;8.850;2023-03-19T01:57:04;15.02;;;3.78;;
3941;SDS011;1985;48.592;8.850;2023-03-19T01:59:34;11.98;;;3.28;;
3941;SDS011;1985;48.592;8.850;2023-03-19T02:05:00;13.45;;;3.50;;
3941;SDS011;1985;48.592;8.850;2023-03-19T02:07:37;13.30;;;3.33;;
3941;SDS011;1985;48.592;8.850;2023-03-19T02:10:05;13.13;;;2.97;;
3941;SDS011;1985;48.592;8.850;2023-03-19T02:12:35;13.40;;;3.00;;
3941;SDS011;1985;48.592;8.850;2023-03-19T02:15:01;13.10;;;3.10;;
3941;SDS011;1985;48.592;8.850;2023-03-19T02:17:26;11.50;;;2.75;;
3941;SDS011;1985;48.592;8.850;2023-03-19T02:22:20;12.00;;;3.30;;
3941;SDS011;1985;48.592;8.850;2023-03-19T02:25:02;12.70;;;2.80;;
3941;SDS011;1985;48.592;8.850;2023-03-19T02:27:37;11.48;;;3.38;;
3941;SDS011;1985;48.592;8.850;2023-03-19T02:30:20;11.70;;;3.30;;
3941;SDS011;1985;48.592;8.850;2023-03-19T02:32:50;13.20;;;2.90;;
3941;SDS011;1985;48.592;8.850;2023-03-19T02:35:16;13.40;;;3.27;;
3941;SDS011;1985;48.592;8.850;2023-03-19T02:37:42;13.57;;;3.63;;
3941;SDS011;1985;48.592;8.850;2023-03-19T02:40:10;17.88;;;3.40;;
3941;SDS011;1985;48.592;8.850;2023-03-19T02:42:44;11.05;;;3.00;;
3941;SDS011;1985;48.592;8.850;2023-03-19T02:45:10;11.83;;;2.87;;
3941;SDS011;1985;48.592;8.850;2023-03-19T02:47:35;11.55;;;3.20;;
3941;SDS011;1985;48.592;8.850;2023-03-19T02:50:01;11.20;;;3.03;;
3941;SDS011;1985;48.592;8.850;2023-03-19T02:52:27;14.10;;;3.20;;
3941;SDS011;1985;48.592;8.850;2023-03-19T02:54:52;10.30;;;2.80;;
3941;SDS011;1985;48.592;8.850;2023-03-19T02:57:18;12.38;;;3.65;;
3941;SDS011;1985;48.592;8.850;2023-03-19T02:59:44;13.82;;;3.40;;
3941;SDS011;1985;48.592;8.850;2023-03-19T03:02:10;12.57;;;3.05;;
3941;SDS011;1985;48.592;8.850;2023-03-19T03:04:36;13.07;;;3.47;;
3941;SDS011;1985;48.592;8.850;2023-03-19T03:07:03;14.05;;;3.42;;
3941;SDS011;1985;48.592;8.850;2023-03-19T03:09:29;14.77;;;4.18;;
3941;SDS011;1985;48.592;8.850;2023-03-19T03:11:55;13.00;;;3.42;;
3941;SDS011;1985;48.592;8.850;2023-03-19T03:14:21;12.05;;;3.50;;
3941;SDS011;1985;48.592;8.850;2023-03-19T03:16:46;14.30;;;3.90;;
3941;SDS011;1985;48.592;8.850;2023-03-19T03:19:12;11.70;;;3.40;;
3941;SDS011;1985;48.592;8.850;2023-03-19T03:21:38;12.55;;;3.40;;
3941;SDS011;1985;48.592;8.850;2023-03-19T03:24:05;13.63;;;3.33;;
3941;SDS011;1985;48.592;8.850;2023-03-19T03:26:31;11.55;;;3.40;;
3941;SDS011;1985;48.592;8.850;2023-03-19T03:28:58;16.67;;;3.58;;
3941;SDS011;1985;48.592;8.850;2023-03-19T03:31:24;13.20;;;3.50;;
3941;SDS011;1985;48.592;8.850;2023-03-19T03:33:50;11.65;;;3.30;;
3941;SDS011;1985;48.592;8.850;2023-03-19T03:36:16;12.10;;;3.33;;
3941;SDS011;1985;48.592;8.850;2023-03-19T03:38:42;10.60;;;2.70;;
3941;SDS011;1985;48.592;8.850;2023-03-19T03:41:08;10.80;;;2.63;;
3941;SDS011;1985;48.592;8.850;2023-03-19T03:43:34;12.53;;;3.63;;
3941;SDS011;1985;48.592;8.850;2023-03-19T03:45:59;9.52;;;2.58;;
3941;SDS011;1985;48.592;8.850;2023-03-19T03:48:25;11.43;;;3.20;;
3941;SDS011;1985;48.592;8.850;2023-03-19T03:50:51;10.10;;;2.85;;
3941;SDS011;1985;48.592;8.850;2023-03-19T03:53:16;16.37;;;3.43;;
3941;SDS011;1985;48.592;8.850;2023-03-19T03:55:42;10.98;;;3.22;;
3941;SDS011;1985;48.592;8.850;2023-03-19T03:58:08;12.90;;;3.77;;
3941;SDS011;1985;48.592;8.850;2023-03-19T04:00:34;12.88;;;3.42;;
3941;SDS011;1985;48.592;8.850;2023-03-19T04:02:59;17.17;;;3.70;;
3941;SDS011;1985;48.592;8.850;2023-03-19T04:05:25;11.75;;;3.13;;
3941;SDS011;1985;48.592;8.850;2023-03-19T04:07:51;12.87;;;3.60;;
3941;SDS011;1985;48.592;8.850;2023-03-19T04:10:17;11.55;;;2.90;;
3941;SDS011;1985;48.592;8.850;2023-03-19T04:12:43;12.07;;;3.28;;
3941;SDS011;1985;48.592;8.850;2023-03-19T04:15:10;12.23;;;3.30;;
3941;SDS011;1985;48.592;8.850;2023-03-19T04:17:36;13.93;;;3.55;;
3941;SDS011;1985;48.592;8.850;2023-03-19T04:20:03;11.43;;;3.03;;
3941;SDS011;1985;48.592;8.850;2023-03-19T04:22:29;15.88;;;3.45;;
3941;SDS011;1985;48.592;8.850;2023-03-19T04:24:55;13.20;;;3.20;;
3941;SDS011;1985;48.592;8.850;2023-03-19T04:27:22;15.63;;;3.50;;
3941;SDS011;1985;48.592;8.850;2023-03-19T04:29:47;14.27;;;3.10;;
3941;SDS011;1985;48.592;8.850;2023-03-19T04:32:13;12.77;;;3.40;;
3941;SDS011;1985;48.592;8.850;2023-03-19T04:34:39;11.63;;;3.42;;
3941;SDS011;1985;48.592;8.850;2023-03-19T04:37:05;12.02;;;3.35;;
3941;SDS011;1985;48.592;8.850;2023-03-19T04:39:34;13.52;;;3.50;;
3941;SDS011;1985;48.592;8.850;2023-03-19T04:42:00;13.73;;;3.60;;
3941;SDS011;1985;48.592;8.850;2023-03-19T04:44:25;12.50;;;4.00;;
3941;SDS011;1985;48.592;8.850;2023-03-19T04:46:51;12.27;;;3.10;;
3941;SDS011;1985;48.592;8.850;2023-03-19T04:49:17;12.20;;;3.70;;
3941;SDS011;1985;48.592;8.850;2023-03-19T04:51:43;12.82;;;3.30;;
3941;SDS011;1985;48.592;8.850;2023-03-19T04:54:09;12.45;;;4.03;;
3941;SDS011;1985;48.592;8.850;2023-03-19T04:56:35;16.42;;;4.10;;
3941;SDS011;1985;48.592;8.850;2023-03-19T04:59:00;15.63;;;3.90;;
3941;SDS011;1985;48.592;8.850;2023-03-19T05:01:26;12.63;;;3.27;;
3941;SDS011;1985;48.592;8.850;2023-03-19T05:03:52;13.15;;;3.80;;
3941;SDS011;1985;48.592;8.850;2023-03-19T05:06:17;12.20;;;3.43;;
3941;SDS011;1985;48.592;8.850;2023-03-19T05:08:44;11.50;;;3.35;;
3941;SDS011;1985;48.592;8.850;2023-03-19T05:11:10;14.20;;;4.20;;
3941;SDS011;1985;48.592;8.850;2023-03-19T05:13:36;14.50;;;4.07;;
3941;SDS011;1985;48.592;8.850;2023-03-19T05:16:02;14.02;;;4.10;;
3941;SDS011;1985;48.592;8.850;2023-03-19T05:18:28;14.30;;;4.15;;
3941;SDS011;1985;48.592;8.850;2023-03-19T05:20:54;11.73;;;3.25;;
3941;SDS011;1985;48.592;8.850;2023-03-19T05:23:20;17.87;;;4.20;;
3941;SDS011;1985;48.592;8.850;2023-03-19T05:25:46;11.32;;;3.20;;
3941;SDS011;1985;48.592;8.850;2023-03-19T05:28:13;13.27;;;3.60;;
3941;SDS011;1985;48.592;8.850;2023-03-19T05:30:39;17.88;;;3.60;;
3941;SDS011;1985;48.592;8.850;2023-03-19T05:33:05;14.68;;;3.78;;
3941;SDS011;1985;48.592;8.850;2023-03-19T05:35:31;14.27;;;4.50;;
3941;SDS011;1985;48.592;8.850;2023-03-19T05:37:57;12.23;;;3.17;;
3941;SDS011;1985;48.592;8.850;2023-03-19T05:40:23;12.73;;;3.47;;
3941;SDS011;1985;48.592;8.850;2023-03-19T05:42:49;12.93;;;3.90;;
3941;SDS011;1985;48.592;8.850;2023-03-19T05:45:15;12.23;;;3.70;;
3941;SDS011;1985;48.592;8.850;2023-03-19T05:47:41;12.98;;;3.92;;
3941;SDS011;1985;48.592;8.850;2023-03-19T05:50:09;13.88;;;3.83;;
3941;SDS011;1985;48.592;8.850;2023-03-19T05:52:36;12.23;;;3.70;;
3941;SDS011;1985;48.592;8.850;2023-03-19T05:55:01;13.02;;;4.03;;
3941;SDS011;1985;48.592;8.850;2023-03-19T05:57:28;12.13;;;3.88;;
3941;SDS011;1985;48.592;8.850;2023-03-19T05:59:54;14.50;;;3.80;;
3941;SDS011;1985;48.592;8.850;2023-03-19T06:02:20;13.63;;;3.50;;
3941;SDS011;1985;48.592;8.850;2023-03-19T06:04:46;13.23;;;4.10;;
3941;SDS011;1985;48.592;8.850;2023-03-19T06:07:11;12.13;;;3.47;;
3941;SDS011;1985;48.592;8.850;2023-03-19T06:09:37;10.67;;;2.80;;
3941;SDS011;1985;48.592;8.850;2023-03-19T06:12:02;12.48;;;3.67;;
3941;SDS011;1985;48.592;8.850;2023-03-19T06:14:28;13.68;;;3.42;;
3941;SDS011;1985;48.592;8.850;2023-03-19T06:16:54;12.00;;;3.80;;
3941;SDS011;1985;48.592;8.850;2023-03-19T06:19:20;12.97;;;3.30;;
3941;SDS011;1985;48.592;8.850;2023-03-19T06:21:45;12.32;;;4.15;;
3941;SDS011;1985;48.592;8.850;2023-03-19T06:24:11;12.77;;;3.37;;
3941;SDS011;1985;48.592;8.850;2023-03-19T06:26:37;10.97;;;3.23;;
3941;SDS011;1985;48.592;8.850;2023-03-19T06:29:02;11.60;;;4.00;;
3941;SDS011;1985;48.592;8.850;2023-03-19T06:31:28;10.95;;;3.63;;
3941;SDS011;1985;48.592;8.850;2023-03-19T06:33:54;12.90;;;3.80;;
3941;SDS011;1985;48.592;8.850;2023-03-19T06:36:20;12.30;;;3.22;;
3941;SDS011;1985;48.592;8.850;2023-03-19T06:38:46;11.82;;;3.70;;
3941;SDS011;1985;48.592;8.850;2023-03-19T06:41:11;14.00;;;4.07;;
3941;SDS011;1985;48.592;8.850;2023-03-19T06:43:37;12.05;;;4.00;;
3941;SDS011;1985;48.592;8.850;2023-03-19T06:46:06;11.48;;;4.30;;
3941;SDS011;1985;48.592;8.850;2023-03-19T06:48:33;17.48;;;4.50;;
3941;SDS011;1985;48.592;8.850;2023-03-19T06:50:59;11.50;;;4.20;;
3941;SDS011;1985;48.592;8.850;2023-03-19T06:53:25;12.40;;;3.90;;
3941;SDS011;1985;48.592;8.850;2023-03-19T06:55:51;12.90;;;4.18;;
3941;SDS011;1985;48.592;8.850;2023-03-19T06:58:17;15.00;;;4.80;;
3941;SDS011;1985;48.592;8.850;2023-03-19T07:00:43;15.20;;;4.10;;
3941;SDS011;1985;48.592;8.850;2023-03-19T07:03:09;12.35;;;4.05;;
3941;SDS011;1985;48.592;8.850;2023-03-19T07:05:35;13.40;;;4.35;;
3941;SDS011;1985;48.592;8.850;2023-03-19T07:08:01;13.20;;;4.03;;
3941;SDS011;1985;48.592;8.850;2023-03-19T07:10:27;11.88;;;3.60;;
3941;SDS011;1985;48.592;8.850;2023-03-19T07:12:52;12.32;;;4.43;;
3941;SDS011;1985;48.592;8.850;2023-03-19T07:15:18;12.50;;;4.13;;
3941;SDS011;1985;48.592;8.850;2023-03-19T07:17:47;13.30;;;4.25;;
3941;SDS011;1985;48.592;8.850;2023-03-19T07:20:13;15.40;;;4.20;;
3941;SDS011;1985;48.592;8.850;2023-03-19T07:22:40;12.80;;;4.25;;
3941;SDS011;1985;48.592;8.850;2023-03-19T07:25:05;26.03;;;11.30;;
3941;SDS011;1985;48.592;8.850;2023-03-19T07:27:31;16.73;;;5.30;;
3941;SDS011;1985;48.592;8.850;2023-03-19T07:29:57;13.02;;;5.13;;
3941;SDS011;1985;48.592;8.850;2023-03-19T07:32:23;14.35;;;5.22;;
3941;SDS011;1985;48.592;8.850;2023-03-19T07:34:49;12.77;;;3.90;;
3941;SDS011;1985;48.592;8.850;2023-03-19T07:37:14;13.38;;;4.78;;
3941;SDS011;1985;48.592;8.850;2023-03-19T07:39:40;13.37;;;4.70;;
3941;SDS011;1985;48.592;8.850;2023-03-19T07:42:07;13.65;;;4.38;;
3941;SDS011;1985;48.592;8.850;2023-03-19T07:44:32;15.73;;;4.30;;
3941;SDS011;1985;48.592;8.850;2023-03-19T07:46:58;14.07;;;4.43;;
3941;SDS011;1985;48.592;8.850;2023-03-19T07:49:24;13.65;;;4.03;;
3941;SDS011;1985;48.592;8.850;2023-03-19T07:51:50;15.23;;;4.20;;
3941;SDS011;1985;48.592;8.850;2023-03-19T07:54:16;11.13;;;3.90;;
3941;SDS011;1985;48.592;8.850;2023-03-19T07:56:42;11.95;;;3.83;;
3941;SDS011;1985;48.592;8.850;2023-03-19T07:59:07;17.33;;;4.40;;
3941;SDS011;1985;48.592;8.850;2023-03-19T08:01:33;12.40;;;3.58;;
3941;SDS011;1985;48.592;8.850;2023-03-19T08:03:59;12.60;;;4.40;;
3941;SDS011;1985;48.592;8.850;2023-03-19T08:06:25;13.00;;;3.70;;
3941;SDS011;1985;48.592;8.850;2023-03-19T08:08:50;15.20;;;3.97;;
3941;SDS011;1985;48.592;8.850;2023-03-19T08:11:16;12.43;;;3.40;;
3941;SDS011;1985;48.592;8.850;2023-03-19T08:13:42;15.30;;;4.10;;
3941;SDS011;1985;48.592;8.850;2023-03-19T08:16:08;14.80;;;4.40;;
3941;SDS011;1985;48.592;8.850;2023-03-19T08:18:34;14.93;;;3.95;;
3941;SDS011;1985;48.592;8.850;2023-03-19T08:21:00;12.40;;;3.57;;
3941;SDS011;1985;48.592;8.850;2023-03-19T08:23:26;12.43;;;3.75;;
3941;SDS011;1985;48.592;8.850;2023-03-19T08:25:52;14.10;;;3.92;;
3941;SDS011;1985;48.592;8.850;2023-03-19T08:28:19;12.50;;;3.40;;
3941;SDS011;1985;48.592;8.850;2023-03-19T08:30:45;14.73;;;3.60;;
3941;SDS011;1985;48.592;8.850;2023-03-19T08:33:10;13.20;;;4.27;;
3941;SDS011;1985;48.592;8.850;2023-03-19T08:35:37;13.00;;;4.25;;
3941;SDS011;1985;48.592;8.850;2023-03-19T08:38:03;14.20;;;4.30;;
3941;SDS011;1985;48.592;8.850;2023-03-19T08:40:28;13.88;;;3.80;;
3941;SDS011;1985;48.592;8.850;2023-03-19T08:42:54;12.80;;;3.97;;
3941;SDS011;1985;48.592;8.850;2023-03-19T08:45:21;13.03;;;3.60;;
3941;SDS011;1985;48.592;8.850;2023-03-19T08:47:47;16.52;;;3.40;;
3941;SDS011;1985;48.592;8.850;2023-03-19T08:50:13;15.75;;;3.40;;
3941;SDS011;1985;48.592;8.850;2023-03-19T08:52:39;13.63;;;3.92;;
3941;SDS011;1985;48.592;8.850;2023-03-19T08:55:05;14.90;;;3.80;;
3941;SDS011;1985;48.592;8.850;2023-03-19T08:57:32;15.98;;;4.25;;
3941;SDS011;1985;48.592;8.850;2023-03-19T08:59:58;11.32;;;3.38;;
3941;SDS011;1985;48.592;8.850;2023-03-19T09:02:24;13.40;;;3.20;;
3941;SDS011;1985;48.592;8.850;2023-03-19T09:04:50;13.25;;;3.45;;
3941;SDS011;1985;48.592;8.850;2023-03-19T09:07:16;11.82;;;2.58;;
3941;SDS011;1985;48.592;8.850;2023-03-19T09:09:42;10.93;;;2.30;;
3941;SDS011;1985;48.592;8.850;2023-03-19T09:12:08;9.70;;;2.30;;
3941;SDS011;1985;48.592;8.850;2023-03-19T09:14:37;10.30;;;2.17;;
3941;SDS011;1985;48.592;8.850;2023-03-19T09:17:03;10.05;;;2.50;;
3941;SDS011;1985;48.592;8.850;2023-03-19T09:19:30;10.57;;;2.90;;
3941;SDS011;1985;48.592;8.850;2023-03-19T09:21:55;10.35;;;2.40;;
3941;SDS011;1985;48.592;8.850;2023-03-19T09:24:21;10.40;;;2.30;;
3941;SDS011;1985;48.592;8.850;2023-03-19T09:26:47;10.13;;;2.40;;
3941;SDS011;1985;48.592;8.850;2023-03-19T09:29:13;11.38;;;2.60;;
3941;SDS011;1985;48.592;8.850;2023-03-19T09:31:39;10.50;;;2.10;;
3941;SDS011;1985;48.592;8.850;2023-03-19T09:34:05;11.20;;;2.37;;
3941;SDS011;1985;48.592;8.850;2023-03-19T09:36:32;19.70;;;5.03;;
3941;SDS011;1985;48.592;8.850;2023-03-19T09:38:59;12.43;;;3.10;;
3941;SDS011;1985;48.592;8.850;2023-03-19T09:41:26;16.33;;;4.73;;
3941;SDS011;1985;48.592;8.850;2023-03-19T09:49:50;15.13;;;4.53;;
3941;SDS011;1985;48.592;8.850;2023-03-19T09:57:54;16.30;;;4.10;;
3941;SDS011;1985;48.592;8.850;2023-03-19T10:00:25;14.27;;;3.45;;
3941;SDS011;1985;48.592;8.850;2023-03-19T10:06:32;9.35;;;2.03;;
3941;SDS011;1985;48.592;8.850;2023-03-19T10:17:18;11.57;;;2.00;;
3941;SDS011;1985;48.592;8.850;2023-03-19T10:22:35;9.85;;;1.90;;
3941;SDS011;1985;48.592;8.850;2023-03-19T10:25:04;12.00;;;2.10;;
3941;SDS011;1985;48.592;8.850;2023-03-19T10:27:40;10.20;;;2.00;;
3941;SDS011;1985;48.592;8.850;2023-03-19T10:30:12;9.65;;;1.90;;
3941;SDS011;1985;48.592;8.850;2023-03-19T10:32:45;12.40;;;2.55;;
3941;SDS011;1985;48.592;8.850;2023-03-19T10:35:22;10.93;;;2.17;;
3941;SDS011;1985;48.592;8.850;2023-03-19T10:37:52;11.93;;;2.80;;
3941;SDS011;1985;48.592;8.850;2023-03-19T10:40:27;13.20;;;2.30;;
3941;SDS011;1985;48.592;8.850;2023-03-19T10:43:17;10.70;;;2.10;;
3941;SDS011;1985;48.592;8.850;2023-03-19T10:45:46;15.77;;;2.33;;
3941;SDS011;1985;48.592;8.850;2023-03-19T10:48:15;9.75;;;2.00;;
3941;SDS011;1985;48.592;8.850;2023-03-19T10:53:46;11.63;;;2.20;;
3941;SDS011;1985;48.592;8.850;2023-03-19T10:56:20;11.18;;;1.88;;
3941;SDS011;1985;48.592;8.850;2023-03-19T11:03:58;10.20;;;2.40;;
3941;SDS011;1985;48.592;8.850;2023-03-19T11:11:24;10.63;;;2.17;;
3941;SDS011;1985;48.592;8.850;2023-03-19T11:14:20;11.65;;;2.50;;
3941;SDS011;1985;48.592;8.850;2023-03-19T11:16:55;10.70;;;2.10;;
3941;SDS011;1985;48.592;8.850;2023-03-19T11:19:41;10.68;;;2.20;;
3941;SDS011;1985;48.592;8.850;2023-03-19T11:22:16;10.07;;;1.95;;
3941;SDS011;1985;48.592;8.850;2023-03-19T11:27:27;9.88;;;1.70;;
3941;SDS011;1985;48.592;8.850;2023-03-19T11:29:59;11.63;;;2.05;;
3941;SDS011;1985;48.592;8.850;2023-03-19T11:37:53;9.50;;;2.00;;
3941;SDS011;1985;48.592;8.850;2023-03-19T11:52:10;8.45;;;1.30;;
3941;SDS011;1985;48.592;8.850;2023-03-19T11:54:43;13.02;;;2.00;;
3941;SDS011;1985;48.592;8.850;2023-03-19T12:10:24;11.98;;;1.67;;
3941;SDS011;1985;48.592;8.850;2023-03-19T12:27:31;9.27;;;1.40;;
3941;SDS011;1985;48.592;8.850;2023-03-19T12:35:49;9.82;;;1.60;;
3941;SDS011;1985;48.592;8.850;2023-03-19T12:38:26;10.15;;;1.40;;
3941;SDS011;1985;48.592;8.850;2023-03-19T12:41:10;9.60;;;1.42;;
3941;SDS011;1985;48.592;8.850;2023-03-19T12:46:40;9.18;;;1.48;;
3941;SDS011;1985;48.592;8.850;2023-03-19T12:49:10;9.20;;;1.30;;
3941;SDS011;1985;48.592;8.850;2023-03-19T12:52:02;9.05;;;1.55;;
3941;SDS011;1985;48.592;8.850;2023-03-19T12:54:41;11.00;;;1.80;;
3941;SDS011;1985;48.592;8.850;2023-03-19T13:04:49;9.50;;;1.70;;
3941;SDS011;1985;48.592;8.850;2023-03-19T13:10:36;8.90;;;1.35;;
3941;SDS011;1985;48.592;8.850;2023-03-19T13:13:05;8.48;;;1.33;;
3941;SDS011;1985;48.592;8.850;2023-03-19T13:15:41;10.50;;;1.50;;
3941;SDS011;1985;48.592;8.850;2023-03-19T13:23:47;8.40;;;1.20;;
3941;SDS011;1985;48.592;8.850;2023-03-19T13:26:15;9.10;;;1.40;;
3941;SDS011;1985;48.592;8.850;2023-03-19T13:28:53;9.10;;;1.40;;
3941;SDS011;1985;48.592;8.850;2023-03-19T13:31:23;8.67;;;1.37;;
3941;SDS011;1985;48.592;8.850;2023-03-19T13:34:01;8.20;;;1.10;;
3941;SDS011;1985;48.592;8.850;2023-03-19T13:36:38;12.20;;;1.40;;
3941;SDS011;1985;48.592;8.850;2023-03-19T13:39:15;9.70;;;1.20;;
3941;SDS011;1985;48.592;8.850;2023-03-19T13:41:50;9.00;;;1.10;;
3941;SDS011;1985;48.592;8.850;2023-03-19T13:46:47;7.77;;;1.00;;
3941;SDS011;1985;48.592;8.850;2023-03-19T13:49:25;9.40;;;1.40;;
3941;SDS011;1985;48.592;8.850;2023-03-19T13:51:53;8.10;;;1.10;;
3941;SDS011;1985;48.592;8.850;2023-03-19T13:54:31;8.23;;;1.10;;
3941;SDS011;1985;48.592;8.850;2023-03-19T13:59:29;9.18;;;1.00;;
3941;SDS011;1985;48.592;8.850;2023-03-19T14:01:56;8.27;;;1.00;;
3941;SDS011;1985;48.592;8.850;2023-03-19T14:04:26;8.68;;;1.20;;
3941;SDS011;1985;48.592;8.850;2023-03-19T14:14:33;7.80;;;0.80;;
3941;SDS011;1985;48.592;8.850;2023-03-19T14:17:09;8.13;;;0.90;;
3941;SDS011;1985;48.592;8.850;2023-03-19T14:19:39;8.35;;;0.90;;
3941;SDS011;1985;48.592;8.850;2023-03-19T14:22:15;9.10;;;1.20;;
3941;SDS011;1985;48.592;8.850;2023-03-19T14:25:01;8.50;;;1.10;;
3941;SDS011;1985;48.592;8.850;2023-03-19T14:27:42;10.10;;;1.10;;
3941;SDS011;1985;48.592;8.850;2023-03-19T14:30:32;8.52;;;1.00;;
3941;SDS011;1985;48.592;8.850;2023-03-19T14:33:57;8.10;;;1.00;;
3941;SDS011;1985;48.592;8.850;2023-03-19T14:35:55;8.40;;;1.00;;
3941;SDS011;1985;48.592;8.850;2023-03-19T14:40:56;8.30;;;0.90;;
3941;SDS011;1985;48.592;8.850;2023-03-19T14:46:18;8.70;;;0.90;;
3941;SDS011;1985;48.592;8.850;2023-03-19T14:52:09;9.40;;;1.30;;
3941;SDS011;1985;48.592;8.850;2023-03-19T14:57:29;9.13;;;1.08;;
3941;SDS011;1985;48.592;8.850;2023-03-19T14:59:58;9.37;;;1.07;;
3941;SDS011;1985;48.592;8.850;2023-03-19T15:02:30;7.78;;;0.90;;
3941;SDS011;1985;48.592;8.850;2023-03-19T15:05:00;11.00;;;1.00;;
3941;SDS011;1985;48.592;8.850;2023-03-19T15:07:34;8.45;;;0.90;;
3941;SDS011;1985;48.592;8.850;2023-03-19T15:10:05;8.10;;;1.10;;
3941;SDS011;1985;48.592;8.850;2023-03-19T15:12:46;8.00;;;1.00;;
3941;SDS011;1985;48.592;8.850;2023-03-19T15:18:12;9.40;;;1.13;;
3941;SDS011;1985;48.592;8.850;2023-03-19T15:20:43;7.90;;;0.90;;
3941;SDS011;1985;48.592;8.850;2023-03-19T15:23:16;8.27;;;1.00;;
3941;SDS011;1985;48.592;8.850;2023-03-19T15:25:46;10.60;;;0.90;;
3941;SDS011;1985;48.592;8.850;2023-03-19T15:28:14;7.80;;;0.90;;
3941;SDS011;1985;48.592;8.850;2023-03-19T15:30:43;8.00;;;0.90;;
3941;SDS011;1985;48.592;8.850;2023-03-19T15:33:19;8.20;;;0.90;;
3941;SDS011;1985;48.592;8.850;2023-03-19T15:35:52;7.90;;;1.00;;
3941;SDS011;1985;48.592;8.850;2023-03-19T15:38:22;8.60;;;1.00;;
3941;SDS011;1985;48.592;8.850;2023-03-19T15:40:52;10.10;;;0.90;;
3941;SDS011;1985;48.592;8.850;2023-03-19T15:43:19;7.90;;;0.90;;
3941;SDS011;1985;48.592;8.850;2023-03-19T15:45:47;8.30;;;1.10;;
3941;SDS011;1985;48.592;8.850;2023-03-19T15:51:01;8.00;;;1.00;;
3941;SDS011;1985;48.592;8.850;2023-03-19T15:53:29;8.20;;;1.00;;
3941;SDS011;1985;48.592;8.850;2023-03-19T15:55:56;10.00;;;1.10;;
3941;SDS011;1985;48.592;8.850;2023-03-19T15:58:29;7.90;;;1.00;;
3941;SDS011;1985;48.592;8.850;2023-03-19T16:01:01;8.05;;;0.90;;
3941;SDS011;1985;48.592;8.850;2023-03-19T16:03:34;9.95;;;1.20;;
3941;SDS011;1985;48.592;8.850;2023-03-19T16:06:02;8.10;;;0.90;;
3941;SDS011;1985;48.592;8.850;2023-03-19T16:08:30;8.70;;;1.10;;
3941;SDS011;1985;48.592;8.850;2023-03-19T16:16:44;7.90;;;0.90;;
3941;SDS011;1985;48.592;8.850;2023-03-19T16:22:13;10.40;;;1.00;;
3941;SDS011;1985;48.592;8.850;2023-03-19T16:24:45;9.85;;;1.00;;
3941;SDS011;1985;48.592;8.850;2023-03-19T16:27:16;8.40;;;1.10;;
3941;SDS011;1985;48.592;8.850;2023-03-19T16:29:46;8.50;;;1.10;;
3941;SDS011;1985;48.592;8.850;2023-03-19T16:32:23;8.00;;;1.00;;
3941;SDS011;1985;48.592;8.850;2023-03-19T16:37:44;8.70;;;1.40;;
3941;SDS011;1985;48.592;8.850;2023-03-19T16:42:40;8.48;;;1.10;;
3941;SDS011;1985;48.592;8.850;2023-03-19T16:47:50;8.43;;;1.10;;
3941;SDS011;1985;48.592;8.850;2023-03-19T16:50:18;8.50;;;1.15;;
3941;SDS011;1985;48.592;8.850;2023-03-19T16:52:45;8.00;;;1.20;;
3941;SDS011;1985;48.592;8.850;2023-03-19T16:55:17;8.35;;;1.00;;
3941;SDS011;1985;48.592;8.850;2023-03-19T16:57:58;8.65;;;1.30;;
3941;SDS011;1985;48.592;8.850;2023-03-19T17:00:26;9.73;;;1.88;;
3941;SDS011;1985;48.592;8.850;2023-03-19T17:02:54;10.18;;;2.17;;
3941;SDS011;1985;48.592;8.850;2023-03-19T17:05:20;11.10;;;2.50;;
3941;SDS011;1985;48.592;8.850;2023-03-19T17:07:46;22.40;;;4.70;;
3941;SDS011;1985;48.592;8.850;2023-03-19T17:10:23;17.98;;;4.55;;
3941;SDS011;1985;48.592;8.850;2023-03-19T17:12:51;17.92;;;4.32;;
3941;SDS011;1985;48.592;8.850;2023-03-19T17:15:34;14.55;;;3.95;;
3941;SDS011;1985;48.592;8.850;2023-03-19T17:18:24;12.13;;;2.90;;
3941;SDS011;1985;48.592;8.850;2023-03-19T17:21:01;18.23;;;3.53;;
3941;SDS011;1985;48.592;8.850;2023-03-19T17:23:30;15.13;;;3.25;;
3941;SDS011;1985;48.592;8.850;2023-03-19T17:25:58;16.60;;;4.07;;
3941;SDS011;1985;48.592;8.850;2023-03-19T17:28:24;32.03;;;13.85;;
3941;SDS011;1985;48.592;8.850;2023-03-19T17:30:50;14.03;;;4.50;;
3941;SDS011;1985;48.592;8.850;2023-03-19T17:35:51;16.38;;;5.93;;
3941;SDS011;1985;48.592;8.850;2023-03-19T17:38:18;19.60;;;7.05;;
3941;SDS011;1985;48.592;8.850;2023-03-19T17:40:45;14.95;;;4.93;;
3941;SDS011;1985;48.592;8.850;2023-03-19T17:43:11;16.30;;;5.17;;
3941;SDS011;1985;48.592;8.850;2023-03-19T17:45:38;13.35;;;2.60;;
3941;SDS011;1985;48.592;8.850;2023-03-19T17:48:08;9.70;;;1.70;;
3941;SDS011;1985;48.592;8.850;2023-03-19T17:50:41;11.57;;;2.20;;
3941;SDS011;1985;48.592;8.850;2023-03-19T17:53:08;11.00;;;2.20;;
3941;SDS011;1985;48.592;8.850;2023-03-19T17:55:36;11.23;;;2.38;;
3941;SDS011;1985;48.592;8.850;2023-03-19T17:58:02;12.57;;;3.17;;
3941;SDS011;1985;48.592;8.850;2023-03-19T18:00:28;14.48;;;2.33;;